sensor_id;sensor_type;location;lat;lon;timestamp;pressure;altitude;pressure_sealevel;temperature;humidity
33454;BME280;39400;49.744;7.012;2023-02-22T00:00:41;95795.38;;;4.35;100.00
33454;BME280;39400;49.744;7.012;2023-02-22T00:03:09;95797.28;;;4.15;100.00
33454;BME280;39400;49.744;7.012;2023-02-22T00:05:35;95790.22;;;4.29;100.00
33454;BME280;39400;49.744;7.012;2023-02-22T00:08:00;95786.06;;;4.36;100.00
33454;BME280;39400;49.744;7.012;2023-02-22T00:10:26;95780.63;;;4.36;100.00
33454;BME280;39400;49.744;7.012;2023-02-22T00:12:53;95785.34;;;4.39;100.00
33454;BME280;39400;49.744;7.012;2023-02-22T00:15:25;95784.94;;;4.37;100.00
33454;BME280;39400;49.744;7.012;2023-02-22T00:17:50;95782.50;;;4.51;100.00
33454;BME280;39400;49.744;7.012;2023-02-22T00:20:15;95779.97;;;4.42;100.00
33454;BME280;39400;49.744;7.012;2023-02-22T00:22:42;95786.84;;;4.36;100.00
33454;BME280;39400;49.744;7.012;2023-02-22T00:25:08;95773.47;;;4.27;100.00
33454;BME280;39400;49.744;7.012;2023-02-22T00:27:35;95783.56;;;4.27;100.00
33454;BME280;39400;49.744;7.012;2023-02-22T00:30:02;95775.59;;;4.18;100.00
33454;BME280;39400;49.744;7.012;2023-02-22T00:32:29;95779.34;;;3.94;100.00
33454;BME280;39400;49.744;7.012;2023-02-22T00:34:54;95771.25;;;3.98;100.00
33454;BME280;39400;49.744;7.012;2023-02-22T00:37:20;95761.09;;;3.95;100.00
33454;BME280;39400;49.744;7.012;2023-02-22T00:39:49;95777.53;;;4.18;100.00
33454;BME280;39400;49.744;7.012;2023-02-22T00:42:16;95775.44;;;4.11;100.00
33454;BME280;39400;49.744;7.012;2023-02-22T00:44:42;95774.66;;;4.11;100.00
33454;BME280;39400;49.744;7.012;2023-02-22T00:47:11;95778.75;;;4.20;100.00
33454;BME280;39400;49.744;7.012;2023-02-22T00:49:36;95771.00;;;4.22;100.00
33454;BME280;39400;49.744;7.012;2023-02-22T00:52:02;95766.16;;;4.12;100.00
33454;BME280;39400;49.744;7.012;2023-02-22T00:54:28;95762.84;;;4.03;100.00
33454;BME280;39400;49.744;7.012;2023-02-22T00:56:53;95762.16;;;3.90;100.00
33454;BME280;39400;49.744;7.012;2023-02-22T00:59:19;95771.09;;;3.91;100.00
33454;BME280;39400;49.744;7.012;2023-02-22T01:01:44;95760.84;;;3.84;100.00
33454;BME280;39400;49.744;7.012;2023-02-22T01:04:09;95764.41;;;4.04;100.00
33454;BME280;39400;49.744;7.012;2023-02-22T01:06:35;95761.25;;;4.02;100.00
33454;BME280;39400;49.744;7.012;2023-02-22T01:09:01;95755.41;;;3.84;100.00
33454;BME280;39400;49.744;7.012;2023-02-22T01:11:26;95758.03;;;3.96;100.00
33454;BME280;39400;49.744;7.012;2023-02-22T01:13:53;95752.38;;;4.05;100.00
33454;BME280;39400;49.744;7.012;2023-02-22T01:16:20;95757.31;;;4.19;100.00
33454;BME280;39400;49.744;7.012;2023-02-22T01:18:46;95751.50;;;4.01;100.00
33454;BME280;39400;49.744;7.012;2023-02-22T01:21:11;95746.38;;;4.35;100.00
33454;BME280;39400;49.744;7.012;2023-02-22T01:23:37;95750.47;;;4.44;100.00
33454;BME280;39400;49.744;7.012;2023-02-22T01:26:03;95749.25;;;4.61;100.00
33454;BME280;39400;49.744;7.012;2023-02-22T01:28:28;95746.28;;;4.70;100.00
33454;BME280;39400;49.744;7.012;2023-02-22T01:30:53;95747.91;;;4.74;100.00
33454;BME280;39400;49.744;7.012;2023-02-22T01:33:19;95744.84;;;4.76;100.00
33454;BME280;39400;49.744;7.012;2023-02-22T01:35:45;95738.41;;;4.65;100.00
33454;BME280;39400;49.744;7.012;2023-02-22T01:38:10;95742.56;;;4.78;100.00
33454;BME280;39400;49.744;7.012;2023-02-22T01:40:40;95731.75;;;4.62;100.00
33454;BME280;39400;49.744;7.012;2023-02-22T01:48:39;95731.97;;;4.96;100.00
33454;BME280;39400;49.744;7.012;2023-02-22T01:51:10;95726.88;;;4.71;100.00
33454;BME280;39400;49.744;7.012;2023-02-22T01:53:52;95728.75;;;4.90;100.00
33454;BME280;39400;49.744;7.012;2023-02-22T01:56:21;95721.16;;;4.99;100.00
33454;BME280;39400;49.744;7.012;2023-02-22T01:58:51;95721.09;;;4.96;100.00
33454;BME280;39400;49.744;7.012;2023-02-22T02:01:19;95711.75;;;4.97;100.00
33454;BME280;39400;49.744;7.012;2023-02-22T02:03:45;95716.53;;;4.81;100.00
33454;BME280;39400;49.744;7.012;2023-02-22T02:06:15;95715.13;;;4.90;100.00
33454;BME280;39400;49.744;7.012;2023-02-22T02:08:47;95718.59;;;4.87;100.00
33454;BME280;39400;49.744;7.012;2023-02-22T02:11:17;95714.34;;;4.90;100.00
33454;BME280;39400;49.744;7.012;2023-02-22T02:13:42;95713.47;;;4.63;100.00
33454;BME280;39400;49.744;7.012;2023-02-22T02:16:08;95713.50;;;4.86;100.00
33454;BME280;39400;49.744;7.012;2023-02-22T02:18:33;95712.66;;;4.82;100.00
33454;BME280;39400;49.744;7.012;2023-02-22T02:21:12;95718.38;;;4.96;100.00
33454;BME280;39400;49.744;7.012;2023-02-22T02:24:06;95718.03;;;5.01;100.00
33454;BME280;39400;49.744;7.012;2023-02-22T02:29:20;95714.84;;;4.95;100.00
33454;BME280;39400;49.744;7.012;2023-02-22T02:37:20;95695.59;;;5.08;100.00
33454;BME280;39400;49.744;7.012;2023-02-22T02:42:20;95688.50;;;5.03;100.00
33454;BME280;39400;49.744;7.012;2023-02-22T02:44:54;95688.84;;;5.24;100.00
33454;BME280;39400;49.744;7.012;2023-02-22T02:47:26;95696.72;;;5.30;100.00
33454;BME280;39400;49.744;7.012;2023-02-22T02:50:01;95686.66;;;5.34;100.00
33454;BME280;39400;49.744;7.012;2023-02-22T02:52:28;95686.16;;;5.51;100.00
33454;BME280;39400;49.744;7.012;2023-02-22T02:54:56;95682.16;;;5.45;100.00
33454;BME280;39400;49.744;7.012;2023-02-22T02:57:22;95682.78;;;5.35;100.00
33454;BME280;39400;49.744;7.012;2023-02-22T02:59:47;95672.88;;;5.49;100.00
33454;BME280;39400;49.744;7.012;2023-02-22T03:02:36;95672.19;;;5.56;100.00
33454;BME280;39400;49.744;7.012;2023-02-22T03:08:16;95662.31;;;5.75;100.00
33454;BME280;39400;49.744;7.012;2023-02-22T03:10:58;95662.81;;;5.84;100.00
33454;BME280;39400;49.744;7.012;2023-02-22T03:13:41;95657.69;;;5.79;100.00
33454;BME280;39400;49.744;7.012;2023-02-22T03:24:32;95656.00;;;5.97;100.00
33454;BME280;39400;49.744;7.012;2023-02-22T03:27:06;95661.09;;;5.99;100.00
33454;BME280;39400;49.744;7.012;2023-02-22T03:29:34;95652.47;;;5.93;100.00
33454;BME280;39400;49.744;7.012;2023-02-22T03:32:04;95656.28;;;5.92;100.00
33454;BME280;39400;49.744;7.012;2023-02-22T03:34:39;95653.06;;;5.83;100.00
33454;BME280;39400;49.744;7.012;2023-02-22T03:37:19;95652.84;;;5.65;100.00
33454;BME280;39400;49.744;7.012;2023-02-22T03:39:48;95649.25;;;5.61;100.00
33454;BME280;39400;49.744;7.012;2023-02-22T03:42:20;95640.69;;;5.89;100.00
33454;BME280;39400;49.744;7.012;2023-02-22T03:44:47;95636.75;;;5.86;100.00
33454;BME280;39400;49.744;7.012;2023-02-22T03:47:22;95639.84;;;5.85;100.00
33454;BME280;39400;49.744;7.012;2023-02-22T03:49:56;95639.91;;;5.92;100.00
33454;BME280;39400;49.744;7.012;2023-02-22T03:52:24;95634.38;;;5.85;100.00
33454;BME280;39400;49.744;7.012;2023-02-22T03:54:50;95635.88;;;5.79;100.00
33454;BME280;39400;49.744;7.012;2023-02-22T03:57:21;95636.63;;;5.76;100.00
33454;BME280;39400;49.744;7.012;2023-02-22T03:59:56;95630.44;;;5.79;100.00
33454;BME280;39400;49.744;7.012;2023-02-22T04:02:22;95634.75;;;5.83;100.00
33454;BME280;39400;49.744;7.012;2023-02-22T04:04:47;95640.47;;;5.75;100.00
33454;BME280;39400;49.744;7.012;2023-02-22T04:07:13;95635.72;;;5.68;100.00
33454;BME280;39400;49.744;7.012;2023-02-22T04:09:39;95633.19;;;5.82;100.00
33454;BME280;39400;49.744;7.012;2023-02-22T04:12:04;95630.94;;;6.22;100.00
33454;BME280;39400;49.744;7.012;2023-02-22T04:14:37;95622.09;;;6.32;100.00
33454;BME280;39400;49.744;7.012;2023-02-22T04:17:02;95623.22;;;6.27;100.00
33454;BME280;39400;49.744;7.012;2023-02-22T04:19:28;95618.53;;;6.28;100.00
33454;BME280;39400;49.744;7.012;2023-02-22T04:21:53;95612.63;;;6.22;100.00
33454;BME280;39400;49.744;7.012;2023-02-22T04:24:23;95613.25;;;6.46;100.00
33454;BME280;39400;49.744;7.012;2023-02-22T04:26:48;95605.44;;;6.44;100.00
33454;BME280;39400;49.744;7.012;2023-02-22T04:29:14;95611.88;;;6.62;100.00
33454;BME280;39400;49.744;7.012;2023-02-22T04:31:42;95597.75;;;6.57;100.00
33454;BME280;39400;49.744;7.012;2023-02-22T04:34:08;95593.25;;;6.79;100.00
33454;BME280;39400;49.744;7.012;2023-02-22T04:36:37;95592.63;;;6.96;100.00
33454;BME280;39400;49.744;7.012;2023-02-22T04:39:03;95600.44;;;6.94;100.00
33454;BME280;39400;49.744;7.012;2023-02-22T04:41:29;95594.59;;;6.99;100.00
33454;BME280;39400;49.744;7.012;2023-02-22T04:43:55;95597.00;;;7.04;100.00
33454;BME280;39400;49.744;7.012;2023-02-22T04:46:22;95603.97;;;6.98;100.00
33454;BME280;39400;49.744;7.012;2023-02-22T04:48:48;95601.06;;;6.77;100.00
33454;BME280;39400;49.744;7.012;2023-02-22T04:51:15;95596.78;;;6.76;100.00
33454;BME280;39400;49.744;7.012;2023-02-22T04:53:51;95605.66;;;6.65;100.00
33454;BME280;39400;49.744;7.012;2023-02-22T04:56:18;95593.09;;;6.61;100.00
33454;BME280;39400;49.744;7.012;2023-02-22T04:58:43;95599.28;;;6.54;100.00
33454;BME280;39400;49.744;7.012;2023-02-22T05:01:09;95596.03;;;6.38;100.00
33454;BME280;39400;49.744;7.012;2023-02-22T05:03:37;95593.31;;;6.38;100.00
33454;BME280;39400;49.744;7.012;2023-02-22T05:06:03;95598.28;;;6.29;100.00
33454;BME280;39400;49.744;7.012;2023-02-22T05:08:28;95592.00;;;6.25;100.00
33454;BME280;39400;49.744;7.012;2023-02-22T05:10:53;95597.44;;;6.25;100.00
33454;BME280;39400;49.744;7.012;2023-02-22T05:13:19;95581.13;;;6.32;100.00
33454;BME280;39400;49.744;7.012;2023-02-22T05:15:44;95596.47;;;6.06;100.00
33454;BME280;39400;49.744;7.012;2023-02-22T05:18:09;95592.00;;;6.25;100.00
33454;BME280;39400;49.744;7.012;2023-02-22T05:20:35;95588.91;;;6.30;100.00
33454;BME280;39400;49.744;7.012;2023-02-22T05:23:01;95596.63;;;6.21;100.00
33454;BME280;39400;49.744;7.012;2023-02-22T05:25:27;95588.09;;;6.26;100.00
33454;BME280;39400;49.744;7.012;2023-02-22T05:27:58;95592.69;;;6.18;100.00
33454;BME280;39400;49.744;7.012;2023-02-22T05:30:27;95590.16;;;6.02;100.00
33454;BME280;39400;49.744;7.012;2023-02-22T05:32:53;95587.94;;;6.11;100.00
33454;BME280;39400;49.744;7.012;2023-02-22T05:35:20;95600.34;;;6.05;100.00
33454;BME280;39400;49.744;7.012;2023-02-22T05:37:45;95596.56;;;6.13;100.00
33454;BME280;39400;49.744;7.012;2023-02-22T05:40:12;95597.97;;;6.00;100.00
33454;BME280;39400;49.744;7.012;2023-02-22T05:42:37;95605.72;;;5.98;100.00
33454;BME280;39400;49.744;7.012;2023-02-22T05:45:03;95597.94;;;5.97;100.00
33454;BME280;39400;49.744;7.012;2023-02-22T05:47:28;95594.31;;;5.89;100.00
33454;BME280;39400;49.744;7.012;2023-02-22T05:49:54;95598.78;;;5.74;100.00
33454;BME280;39400;49.744;7.012;2023-02-22T05:52:19;95601.38;;;5.63;100.00
33454;BME280;39400;49.744;7.012;2023-02-22T05:54:45;95599.00;;;5.58;100.00
33454;BME280;39400;49.744;7.012;2023-02-22T05:57:10;95601.09;;;5.42;100.00
33454;BME280;39400;49.744;7.012;2023-02-22T05:59:35;95595.59;;;5.38;100.00
33454;BME280;39400;49.744;7.012;2023-02-22T06:02:00;95601.72;;;5.32;100.00
33454;BME280;39400;49.744;7.012;2023-02-22T06:04:26;95589.25;;;5.31;100.00
33454;BME280;39400;49.744;7.012;2023-02-22T06:06:51;95587.53;;;5.19;100.00
33454;BME280;39400;49.744;7.012;2023-02-22T06:09:16;95589.78;;;5.13;100.00
33454;BME280;39400;49.744;7.012;2023-02-22T06:11:42;95588.09;;;5.05;100.00
33454;BME280;39400;49.744;7.012;2023-02-22T06:14:07;95594.53;;;5.16;100.00
33454;BME280;39400;49.744;7.012;2023-02-22T06:16:32;95587.06;;;5.13;100.00
33454;BME280;39400;49.744;7.012;2023-02-22T06:18:58;95593.56;;;5.05;100.00
33454;BME280;39400;49.744;7.012;2023-02-22T06:21:23;95593.59;;;5.09;100.00
33454;BME280;39400;49.744;7.012;2023-02-22T06:23:48;95596.91;;;5.21;100.00
33454;BME280;39400;49.744;7.012;2023-02-22T06:26:17;95587.56;;;5.22;100.00
33454;BME280;39400;49.744;7.012;2023-02-22T06:28:46;95587.66;;;5.30;100.00
33454;BME280;39400;49.744;7.012;2023-02-22T06:31:11;95593.59;;;5.35;100.00
33454;BME280;39400;49.744;7.012;2023-02-22T06:33:37;95590.00;;;5.28;100.00
33454;BME280;39400;49.744;7.012;2023-02-22T06:36:03;95598.91;;;5.24;100.00
33454;BME280;39400;49.744;7.012;2023-02-22T06:38:28;95599.22;;;5.19;100.00
33454;BME280;39400;49.744;7.012;2023-02-22T06:40:53;95602.06;;;5.27;100.00
33454;BME280;39400;49.744;7.012;2023-02-22T06:43:19;95598.56;;;5.30;100.00
33454;BME280;39400;49.744;7.012;2023-02-22T06:45:45;95595.94;;;5.37;100.00
33454;BME280;39400;49.744;7.012;2023-02-22T06:48:10;95594.09;;;5.41;100.00
33454;BME280;39400;49.744;7.012;2023-02-22T06:50:36;95598.03;;;5.47;100.00
33454;BME280;39400;49.744;7.012;2023-02-22T06:53:02;95600.03;;;5.50;100.00
33454;BME280;39400;49.744;7.012;2023-02-22T06:55:30;95597.31;;;5.50;100.00
33454;BME280;39400;49.744;7.012;2023-02-22T06:57:56;95603.19;;;5.52;100.00
33454;BME280;39400;49.744;7.012;2023-02-22T07:00:23;95603.69;;;5.61;100.00
33454;BME280;39400;49.744;7.012;2023-02-22T07:02:48;95600.69;;;5.70;100.00
33454;BME280;39400;49.744;7.012;2023-02-22T07:05:15;95603.16;;;5.79;100.00
33454;BME280;39400;49.744;7.012;2023-02-22T07:07:40;95611.06;;;5.91;100.00
33454;BME280;39400;49.744;7.012;2023-02-22T07:10:07;95608.84;;;5.97;100.00
33454;BME280;39400;49.744;7.012;2023-02-22T07:12:33;95604.91;;;5.94;100.00
33454;BME280;39400;49.744;7.012;2023-02-22T07:14:59;95600.13;;;5.87;100.00
33454;BME280;39400;49.744;7.012;2023-02-22T07:17:24;95604.13;;;5.93;100.00
33454;BME280;39400;49.744;7.012;2023-02-22T07:19:50;95607.69;;;5.98;100.00
33454;BME280;39400;49.744;7.012;2023-02-22T07:22:15;95604.84;;;5.90;100.00
33454;BME280;39400;49.744;7.012;2023-02-22T07:24:40;95605.78;;;6.02;100.00
33454;BME280;39400;49.744;7.012;2023-02-22T07:27:06;95612.38;;;6.01;100.00
33454;BME280;39400;49.744;7.012;2023-02-22T07:29:31;95606.63;;;6.09;100.00
33454;BME280;39400;49.744;7.012;2023-02-22T07:31:56;95612.84;;;6.06;100.00
33454;BME280;39400;49.744;7.012;2023-02-22T07:34:22;95601.25;;;6.16;100.00
33454;BME280;39400;49.744;7.012;2023-02-22T07:36:47;95610.69;;;6.23;100.00
33454;BME280;39400;49.744;7.012;2023-02-22T07:39:13;95607.78;;;6.42;100.00
33454;BME280;39400;49.744;7.012;2023-02-22T07:41:38;95607.16;;;6.59;100.00
33454;BME280;39400;49.744;7.012;2023-02-22T07:44:12;95602.56;;;6.71;100.00
33454;BME280;39400;49.744;7.012;2023-02-22T07:46:38;95602.28;;;6.83;100.00
33454;BME280;39400;49.744;7.012;2023-02-22T07:49:03;95598.09;;;6.96;100.00
33454;BME280;39400;49.744;7.012;2023-02-22T07:51:28;95605.22;;;7.08;100.00
33454;BME280;39400;49.744;7.012;2023-02-22T07:53:54;95604.53;;;7.22;100.00
33454;BME280;39400;49.744;7.012;2023-02-22T07:56:19;95603.84;;;7.35;100.00
33454;BME280;39400;49.744;7.012;2023-02-22T07:58:44;95599.63;;;7.45;100.00
33454;BME280;39400;49.744;7.012;2023-02-22T08:01:10;95594.53;;;7.47;100.00
33454;BME280;39400;49.744;7.012;2023-02-22T08:03:35;95595.34;;;7.55;100.00
33454;BME280;39400;49.744;7.012;2023-02-22T08:06:01;95593.81;;;7.57;100.00
33454;BME280;39400;49.744;7.012;2023-02-22T08:08:27;95600.16;;;7.76;100.00
33454;BME280;39400;49.744;7.012;2023-02-22T08:10:52;95598.22;;;7.80;100.00
33454;BME280;39400;49.744;7.012;2023-02-22T08:13:18;95596.28;;;7.80;100.00
33454;BME280;39400;49.744;7.012;2023-02-22T08:15:43;95601.41;;;7.93;100.00
33454;BME280;39400;49.744;7.012;2023-02-22T08:18:12;95597.91;;;7.99;100.00
33454;BME280;39400;49.744;7.012;2023-02-22T08:20:40;95596.03;;;8.18;100.00
33454;BME280;39400;49.744;7.012;2023-02-22T08:23:06;95595.63;;;8.16;100.00
33454;BME280;39400;49.744;7.012;2023-02-22T08:25:32;95593.69;;;8.23;100.00
33454;BME280;39400;49.744;7.012;2023-02-22T08:28:09;95591.78;;;8.38;100.00
33454;BME280;39400;49.744;7.012;2023-02-22T08:30:36;95594.88;;;8.33;100.00
33454;BME280;39400;49.744;7.012;2023-02-22T08:33:03;95587.91;;;8.39;100.00
33454;BME280;39400;49.744;7.012;2023-02-22T08:35:29;95589.47;;;8.40;100.00
33454;BME280;39400;49.744;7.012;2023-02-22T08:37:58;95587.13;;;8.46;100.00
33454;BME280;39400;49.744;7.012;2023-02-22T08:40:26;95591.78;;;8.38;100.00
33454;BME280;39400;49.744;7.012;2023-02-22T08:42:52;95591.84;;;8.45;100.00
33454;BME280;39400;49.744;7.012;2023-02-22T08:45:17;95584.38;;;8.39;100.00
33454;BME280;39400;49.744;7.012;2023-02-22T08:47:43;95585.47;;;8.30;100.00
33454;BME280;39400;49.744;7.012;2023-02-22T08:50:15;95583.53;;;8.31;100.00
33454;BME280;39400;49.744;7.012;2023-02-22T08:52:41;95583.16;;;8.29;100.00
33454;BME280;39400;49.744;7.012;2023-02-22T08:55:06;95583.16;;;8.32;100.00
33454;BME280;39400;49.744;7.012;2023-02-22T08:57:32;95586.25;;;8.31;100.00
33454;BME280;39400;49.744;7.012;2023-02-22T08:59:57;95589.00;;;8.31;100.00
33454;BME280;39400;49.744;7.012;2023-02-22T09:02:22;95584.69;;;8.26;100.00
33454;BME280;39400;49.744;7.012;2023-02-22T09:04:48;95577.28;;;8.30;100.00
33454;BME280;39400;49.744;7.012;2023-02-22T09:07:14;95572.19;;;8.36;100.00
33454;BME280;39400;49.744;7.012;2023-02-22T09:09:41;95580.78;;;8.31;100.00
33454;BME280;39400;49.744;7.012;2023-02-22T09:12:07;95579.25;;;8.37;100.00
33454;BME280;39400;49.744;7.012;2023-02-22T09:14:32;95582.41;;;8.39;100.00
33454;BME280;39400;49.744;7.012;2023-02-22T09:16:57;95576.16;;;8.42;100.00
33454;BME280;39400;49.744;7.012;2023-02-22T09:19:23;95572.25;;;8.43;100.00
33454;BME280;39400;49.744;7.012;2023-02-22T09:21:56;95574.94;;;8.36;100.00
33454;BME280;39400;49.744;7.012;2023-02-22T09:24:22;95577.72;;;8.50;100.00
33454;BME280;39400;49.744;7.012;2023-02-22T09:26:49;95574.59;;;8.52;100.00
33454;BME280;39400;49.744;7.012;2023-02-22T09:29:14;95569.16;;;8.63;100.00
33454;BME280;39400;49.744;7.012;2023-02-22T09:31:40;95579.31;;;8.58;100.00
33454;BME280;39400;49.744;7.012;2023-02-22T09:34:07;95575.41;;;8.70;100.00
33454;BME280;39400;49.744;7.012;2023-02-22T09:36:32;95569.16;;;8.88;100.00
33454;BME280;39400;49.744;7.012;2023-02-22T09:38:57;95565.22;;;8.78;100.00
33454;BME280;39400;49.744;7.012;2023-02-22T09:41:30;95558.19;;;8.91;100.00
33454;BME280;39400;49.744;7.012;2023-02-22T09:46:49;95561.72;;;8.95;100.00
33454;BME280;39400;49.744;7.012;2023-02-22T09:49:25;95558.13;;;9.27;100.00
33454;BME280;39400;49.744;7.012;2023-02-22T09:52:03;95570.69;;;9.14;100.00
33454;BME280;39400;49.744;7.012;2023-02-22T09:54:37;95563.63;;;9.20;100.00
33454;BME280;39400;49.744;7.012;2023-02-22T09:57:07;95565.22;;;9.17;100.00
33454;BME280;39400;49.744;7.012;2023-02-22T09:59:55;95569.91;;;9.20;100.00
33454;BME280;39400;49.744;7.012;2023-02-22T10:02:28;95567.56;;;9.19;100.00
33454;BME280;39400;49.744;7.012;2023-02-22T10:05:20;95570.66;;;9.28;100.00
33454;BME280;39400;49.744;7.012;2023-02-22T10:07:51;95569.13;;;9.27;100.00
33454;BME280;39400;49.744;7.012;2023-02-22T10:10:21;95563.22;;;9.39;100.00
33454;BME280;39400;49.744;7.012;2023-02-22T10:13:10;95561.97;;;9.69;100.00
33454;BME280;39400;49.744;7.012;2023-02-22T10:23:51;95549.84;;;10.47;100.00
33454;BME280;39400;49.744;7.012;2023-02-22T10:26:24;95557.97;;;10.65;100.00
33454;BME280;39400;49.744;7.012;2023-02-22T10:31:35;95548.88;;;10.75;100.00
33454;BME280;39400;49.744;7.012;2023-02-22T10:34:09;95540.06;;;10.91;100.00
33454;BME280;39400;49.744;7.012;2023-02-22T10:36:36;95549.94;;;10.88;100.00
33454;BME280;39400;49.744;7.012;2023-02-22T10:39:26;95544.31;;;11.03;100.00
33454;BME280;39400;49.744;7.012;2023-02-22T10:41:55;95549.41;;;11.04;100.00
33454;BME280;39400;49.744;7.012;2023-02-22T10:44:21;95550.69;;;11.37;100.00
33454;BME280;39400;49.744;7.012;2023-02-22T10:46:47;95538.41;;;11.46;100.00
33454;BME280;39400;49.744;7.012;2023-02-22T10:49:19;95538.03;;;11.43;100.00
33454;BME280;39400;49.744;7.012;2023-02-22T10:51:58;95546.81;;;11.31;100.00
33454;BME280;39400;49.744;7.012;2023-02-22T10:54:29;95545.41;;;11.54;100.00
33454;BME280;39400;49.744;7.012;2023-02-22T10:56:56;95531.72;;;11.47;100.00
33454;BME280;39400;49.744;7.012;2023-02-22T10:59:27;95535.72;;;11.38;100.00
33454;BME280;39400;49.744;7.012;2023-02-22T11:01:52;95531.44;;;11.34;100.00
33454;BME280;39400;49.744;7.012;2023-02-22T11:04:19;95533.94;;;11.59;100.00
33454;BME280;39400;49.744;7.012;2023-02-22T11:06:47;95529.16;;;11.63;100.00
33454;BME280;39400;49.744;7.012;2023-02-22T11:09:14;95526.13;;;11.54;100.00
33454;BME280;39400;49.744;7.012;2023-02-22T11:11:46;95534.59;;;11.70;100.00
33454;BME280;39400;49.744;7.012;2023-02-22T11:14:26;95542.78;;;11.39;100.00
33454;BME280;39400;49.744;7.012;2023-02-22T11:16:53;95541.56;;;11.03;100.00
33454;BME280;39400;49.744;7.012;2023-02-22T11:19:21;95539.56;;;11.07;100.00
33454;BME280;39400;49.744;7.012;2023-02-22T11:21:48;95539.94;;;11.09;100.00
33454;BME280;39400;49.744;7.012;2023-02-22T11:24:14;95531.84;;;10.87;100.00
33454;BME280;39400;49.744;7.012;2023-02-22T11:26:42;95530.66;;;10.92;100.00
33454;BME280;39400;49.744;7.012;2023-02-22T11:29:38;95540.56;;;11.27;100.00
33454;BME280;39400;49.744;7.012;2023-02-22T11:32:12;95522.66;;;11.46;100.00
33454;BME280;39400;49.744;7.012;2023-02-22T11:34:40;95523.31;;;11.61;100.00
33454;BME280;39400;49.744;7.012;2023-02-22T11:37:34;95522.13;;;11.58;100.00
33454;BME280;39400;49.744;7.012;2023-02-22T11:40:26;95535.78;;;11.69;100.00
33454;BME280;39400;49.744;7.012;2023-02-22T11:43:18;95520.47;;;11.68;100.00
33454;BME280;39400;49.744;7.012;2023-02-22T11:48:40;95523.66;;;11.63;100.00
33454;BME280;39400;49.744;7.012;2023-02-22T11:51:11;95523.56;;;11.70;100.00
33454;BME280;39400;49.744;7.012;2023-02-22T11:54:03;95514.78;;;11.82;100.00
33454;BME280;39400;49.744;7.012;2023-02-22T11:56:47;95521.94;;;12.10;100.00
33454;BME280;39400;49.744;7.012;2023-02-22T12:04:47;95518.16;;;12.55;100.00
33454;BME280;39400;49.744;7.012;2023-02-22T12:09:49;95506.75;;;12.53;100.00
33454;BME280;39400;49.744;7.012;2023-02-22T12:12:26;95511.31;;;12.63;100.00
33454;BME280;39400;49.744;7.012;2023-02-22T12:15:22;95511.78;;;12.85;100.00
33454;BME280;39400;49.744;7.012;2023-02-22T12:18:05;95510.19;;;12.84;99.65
33454;BME280;39400;49.744;7.012;2023-02-22T12:20:39;95508.09;;;12.92;100.00
33454;BME280;39400;49.744;7.012;2023-02-22T12:25:40;95509.28;;;12.67;100.00
33454;BME280;39400;49.744;7.012;2023-02-22T12:31:09;95508.69;;;12.56;100.00
33454;BME280;39400;49.744;7.012;2023-02-22T12:34:02;95497.88;;;12.92;100.00
33454;BME280;39400;49.744;7.012;2023-02-22T12:36:41;95518.66;;;12.73;100.00
33454;BME280;39400;49.744;7.012;2023-02-22T12:39:32;95516.38;;;12.41;100.00
33454;BME280;39400;49.744;7.012;2023-02-22T12:42:04;95523.22;;;12.29;100.00
33454;BME280;39400;49.744;7.012;2023-02-22T12:44:38;95524.81;;;12.30;100.00
33454;BME280;39400;49.744;7.012;2023-02-22T12:47:06;95524.25;;;11.81;100.00
33454;BME280;39400;49.744;7.012;2023-02-22T12:49:52;95518.81;;;11.74;100.00
33454;BME280;39400;49.744;7.012;2023-02-22T12:52:47;95525.34;;;12.18;100.00
33454;BME280;39400;49.744;7.012;2023-02-22T12:55:18;95527.88;;;12.09;100.00
33454;BME280;39400;49.744;7.012;2023-02-22T12:58:06;95532.44;;;12.19;100.00
33454;BME280;39400;49.744;7.012;2023-02-22T13:00:42;95532.94;;;12.10;100.00
33454;BME280;39400;49.744;7.012;2023-02-22T13:06:35;95529.41;;;12.10;100.00
33454;BME280;39400;49.744;7.012;2023-02-22T13:17:45;95516.50;;;12.61;100.00
33454;BME280;39400;49.744;7.012;2023-02-22T13:25:27;95512.63;;;12.82;100.00
33454;BME280;39400;49.744;7.012;2023-02-22T13:28:08;95507.06;;;12.58;100.00
33454;BME280;39400;49.744;7.012;2023-02-22T13:31:00;95505.88;;;12.59;100.00
33454;BME280;39400;49.744;7.012;2023-02-22T13:36:14;95498.25;;;12.67;100.00
33454;BME280;39400;49.744;7.012;2023-02-22T13:52:06;95499.75;;;11.90;100.00
33454;BME280;39400;49.744;7.012;2023-02-22T13:54:42;95508.50;;;11.82;100.00
33454;BME280;39400;49.744;7.012;2023-02-22T13:59:42;95508.63;;;11.71;100.00
33454;BME280;39400;49.744;7.012;2023-02-22T14:02:32;95508.47;;;11.85;100.00
33454;BME280;39400;49.744;7.012;2023-02-22T14:04:59;95505.09;;;11.67;100.00
33454;BME280;39400;49.744;7.012;2023-02-22T14:09:51;95507.16;;;11.59;100.00
33454;BME280;39400;49.744;7.012;2023-02-22T14:17:40;95513.44;;;11.60;100.00
33454;BME280;39400;49.744;7.012;2023-02-22T14:22:38;95507.81;;;11.71;100.00
33454;BME280;39400;49.744;7.012;2023-02-22T14:25:03;95509.63;;;11.54;100.00
33454;BME280;39400;49.744;7.012;2023-02-22T14:27:38;95503.56;;;11.66;100.00
33454;BME280;39400;49.744;7.012;2023-02-22T14:30:04;95504.03;;;11.61;100.00
33454;BME280;39400;49.744;7.012;2023-02-22T14:32:32;95509.16;;;11.93;100.00
33454;BME280;39400;49.744;7.012;2023-02-22T14:35:19;95515.34;;;12.01;100.00
33454;BME280;39400;49.744;7.012;2023-02-22T14:37:50;95510.19;;;11.72;100.00
33454;BME280;39400;49.744;7.012;2023-02-22T14:40:24;95515.69;;;11.72;100.00
33454;BME280;39400;49.744;7.012;2023-02-22T14:42:59;95515.84;;;11.58;100.00
33454;BME280;39400;49.744;7.012;2023-02-22T14:45:28;95514.06;;;11.40;100.00
33454;BME280;39400;49.744;7.012;2023-02-22T14:50:51;95516.88;;;11.37;100.00
33454;BME280;39400;49.744;7.012;2023-02-22T14:53:23;95510.59;;;11.36;100.00
33454;BME280;39400;49.744;7.012;2023-02-22T14:58:58;95515.66;;;11.00;100.00